sensor_id;sensor_type;location;lat;lon;timestamp;P1;durP1;ratioP1;P2;durP2;ratioP2
73132;SDS011;61320;52.008;4.530;2022-09-03T00:01:33;3.47;;;3.47;;
73132;SDS011;61320;52.008;4.530;2022-09-03T00:04:07;3.38;;;3.38;;
73132;SDS011;61320;52.008;4.530;2022-09-03T00:06:46;3.46;;;3.46;;
73132;SDS011;61320;52.008;4.530;2022-09-03T00:09:20;3.33;;;3.33;;
73132;SDS011;61320;52.008;4.530;2022-09-03T00:12:35;3.08;;;3.08;;
73132;SDS011;61320;52.008;4.530;2022-09-03T00:14:52;3.15;;;3.15;;
73132;SDS011;61320;52.008;4.530;2022-09-03T00:17:26;3.26;;;3.26;;
73132;SDS011;61320;52.008;4.530;2022-09-03T00:20:02;3.15;;;3.15;;
73132;SDS011;61320;52.008;4.530;2022-09-03T00:22:33;3.52;;;3.52;;
73132;SDS011;61320;52.008;4.530;2022-09-03T00:25:05;3.31;;;3.31;;
73132;SDS011;61320;52.008;4.530;2022-09-03T00:27:36;3.33;;;3.33;;
73132;SDS011;61320;52.008;4.530;2022-09-03T00:30:09;3.27;;;3.27;;
73132;SDS011;61320;52.008;4.530;2022-09-03T00:35:30;3.36;;;3.36;;
73132;SDS011;61320;52.008;4.530;2022-09-03T00:38:00;3.36;;;3.36;;
73132;SDS011;61320;52.008;4.530;2022-09-03T00:40:40;3.46;;;3.45;;
73132;SDS011;61320;52.008;4.530;2022-09-03T00:52:21;3.14;;;3.14;;
73132;SDS011;61320;52.008;4.530;2022-09-03T01:00:36;3.39;;;3.39;;
73132;SDS011;61320;52.008;4.530;2022-09-03T01:03:11;3.31;;;3.31;;
73132;SDS011;61320;52.008;4.530;2022-09-03T07:11:32;4.92;;;4.92;;
73132;SDS011;61320;52.008;4.530;2022-09-03T07:14:00;4.30;;;4.30;;
73132;SDS011;61320;52.008;4.530;2022-09-03T07:19:00;4.09;;;4.09;;
73132;SDS011;61320;52.008;4.530;2022-09-03T07:21:28;4.21;;;4.21;;
73132;SDS011;61320;52.008;4.530;2022-09-03T07:23:58;4.36;;;4.36;;
73132;SDS011;61320;52.008;4.530;2022-09-03T07:26:25;4.48;;;4.48;;
73132;SDS011;61320;52.008;4.530;2022-09-03T07:28:53;4.15;;;4.15;;
73132;SDS011;61320;52.008;4.530;2022-09-03T07:31:23;4.52;;;4.52;;
73132;SDS011;61320;52.008;4.530;2022-09-03T07:33:54;4.31;;;4.31;;
73132;SDS011;61320;52.008;4.530;2022-09-03T07:36:21;4.43;;;4.43;;
73132;SDS011;61320;52.008;4.530;2022-09-03T07:38:47;4.27;;;4.27;;
73132;SDS011;61320;52.008;4.530;2022-09-03T07:41:14;4.17;;;4.17;;
73132;SDS011;61320;52.008;4.530;2022-09-03T07:43:43;4.30;;;4.30;;
73132;SDS011;61320;52.008;4.530;2022-09-03T07:46:20;4.44;;;4.44;;
73132;SDS011;61320;52.008;4.530;2022-09-03T07:48:48;4.13;;;4.13;;
73132;SDS011;61320;52.008;4.530;2022-09-03T07:51:21;4.24;;;4.24;;
73132;SDS011;61320;52.008;4.530;2022-09-03T07:53:51;4.21;;;4.21;;
73132;SDS011;61320;52.008;4.530;2022-09-03T07:56:18;4.06;;;4.06;;
73132;SDS011;61320;52.008;4.530;2022-09-03T07:58:46;4.17;;;4.17;;
73132;SDS011;61320;52.008;4.530;2022-09-03T08:01:21;4.20;;;4.20;;
73132;SDS011;61320;52.008;4.530;2022-09-03T08:03:49;4.47;;;4.47;;
73132;SDS011;61320;52.008;4.530;2022-09-03T08:06:17;4.08;;;4.08;;
73132;SDS011;61320;52.008;4.530;2022-09-03T08:08:45;3.99;;;3.99;;
73132;SDS011;61320;52.008;4.530;2022-09-03T08:13:37;4.02;;;4.02;;
73132;SDS011;61320;52.008;4.530;2022-09-03T08:16:09;4.42;;;4.42;;
73132;SDS011;61320;52.008;4.530;2022-09-03T08:18:39;4.16;;;4.16;;
73132;SDS011;61320;52.008;4.530;2022-09-03T08:21:07;4.24;;;4.24;;
73132;SDS011;61320;52.008;4.530;2022-09-03T08:23:36;4.23;;;4.23;;
73132;SDS011;61320;52.008;4.530;2022-09-03T08:26:02;3.92;;;3.92;;
73132;SDS011;61320;52.008;4.530;2022-09-03T08:28:28;4.35;;;4.35;;
73132;SDS011;61320;52.008;4.530;2022-09-03T08:30:54;3.93;;;3.93;;
73132;SDS011;61320;52.008;4.530;2022-09-03T08:33:20;4.22;;;4.22;;
73132;SDS011;61320;52.008;4.530;2022-09-03T08:36:10;3.93;;;3.93;;
73132;SDS011;61320;52.008;4.530;2022-09-03T08:38:37;4.33;;;4.33;;
73132;SDS011;61320;52.008;4.530;2022-09-03T08:41:19;4.07;;;4.07;;
73132;SDS011;61320;52.008;4.530;2022-09-03T08:47:10;4.23;;;4.23;;
73132;SDS011;61320;52.008;4.530;2022-09-03T08:50:03;4.26;;;4.26;;
73132;SDS011;61320;52.008;4.530;2022-09-03T08:52:46;4.20;;;4.20;;
73132;SDS011;61320;52.008;4.530;2022-09-03T08:57:46;3.86;;;3.86;;
73132;SDS011;61320;52.008;4.530;2022-09-03T09:00:21;4.09;;;4.09;;
73132;SDS011;61320;52.008;4.530;2022-09-03T09:02:51;3.87;;;3.87;;
73132;SDS011;61320;52.008;4.530;2022-09-03T09:05:48;4.05;;;4.05;;
73132;SDS011;61320;52.008;4.530;2022-09-03T09:08:46;4.00;;;4.00;;
73132;SDS011;61320;52.008;4.530;2022-09-03T09:11:23;3.86;;;3.86;;
73132;SDS011;61320;52.008;4.530;2022-09-03T09:13:58;3.83;;;3.83;;
73132;SDS011;61320;52.008;4.530;2022-09-03T09:22:10;4.20;;;4.20;;
73132;SDS011;61320;52.008;4.530;2022-09-03T09:24:48;4.32;;;4.32;;
73132;SDS011;61320;52.008;4.530;2022-09-03T09:27:19;4.41;;;4.41;;
73132;SDS011;61320;52.008;4.530;2022-09-03T09:29:48;4.12;;;4.12;;
73132;SDS011;61320;52.008;4.530;2022-09-03T09:32:16;3.90;;;3.90;;
73132;SDS011;61320;52.008;4.530;2022-09-03T09:34:44;3.74;;;3.74;;
73132;SDS011;61320;52.008;4.530;2022-09-03T09:37:12;3.78;;;3.78;;
73132;SDS011;61320;52.008;4.530;2022-09-03T09:39:39;3.93;;;3.93;;
73132;SDS011;61320;52.008;4.530;2022-09-03T09:42:20;3.87;;;3.87;;
73132;SDS011;61320;52.008;4.530;2022-09-03T09:44:47;3.95;;;3.95;;
73132;SDS011;61320;52.008;4.530;2022-09-03T09:47:20;3.55;;;3.55;;
73132;SDS011;61320;52.008;4.530;2022-09-03T09:49:57;3.62;;;3.62;;
73132;SDS011;61320;52.008;4.530;2022-09-03T09:52:25;3.53;;;3.53;;
73132;SDS011;61320;52.008;4.530;2022-09-03T09:55:04;3.37;;;3.37;;
73132;SDS011;61320;52.008;4.530;2022-09-03T09:57:32;3.60;;;3.60;;
73132;SDS011;61320;52.008;4.530;2022-09-03T10:00:08;3.35;;;3.35;;
73132;SDS011;61320;52.008;4.530;2022-09-03T10:02:37;3.09;;;3.09;;
73132;SDS011;61320;52.008;4.530;2022-09-03T10:05:13;4.02;;;4.02;;
73132;SDS011;61320;52.008;4.530;2022-09-03T10:07:53;3.77;;;3.77;;
73132;SDS011;61320;52.008;4.530;2022-09-03T10:10:23;3.40;;;3.40;;
73132;SDS011;61320;52.008;4.530;2022-09-03T10:18:11;3.13;;;3.13;;
73132;SDS011;61320;52.008;4.530;2022-09-03T10:21:07;3.26;;;3.26;;
73132;SDS011;61320;52.008;4.530;2022-09-03T10:23:56;3.03;;;3.03;;
73132;SDS011;61320;52.008;4.530;2022-09-03T10:26:28;3.48;;;3.48;;
73132;SDS011;61320;52.008;4.530;2022-09-03T10:29:05;2.88;;;2.88;;
73132;SDS011;61320;52.008;4.530;2022-09-03T10:34:13;3.05;;;3.05;;
73132;SDS011;61320;52.008;4.530;2022-09-03T10:36:52;2.64;;;2.64;;
73132;SDS011;61320;52.008;4.530;2022-09-03T10:50:26;3.44;;;3.44;;
73132;SDS011;61320;52.008;4.530;2022-09-03T10:55:59;3.15;;;3.15;;
73132;SDS011;61320;52.008;4.530;2022-09-03T11:04:04;2.90;;;2.90;;
73132;SDS011;61320;52.008;4.530;2022-09-03T11:06:42;3.27;;;3.27;;
73132;SDS011;61320;52.008;4.530;2022-09-03T11:09:15;3.70;;;3.70;;
73132;SDS011;61320;52.008;4.530;2022-09-03T11:11:50;3.80;;;3.80;;
73132;SDS011;61320;52.008;4.530;2022-09-03T11:14:29;4.17;;;4.17;;
73132;SDS011;61320;52.008;4.530;2022-09-03T11:17:11;3.53;;;3.53;;
73132;SDS011;61320;52.008;4.530;2022-09-03T11:19:54;3.49;;;3.49;;
73132;SDS011;61320;52.008;4.530;2022-09-03T11:22:43;3.84;;;3.84;;
73132;SDS011;61320;52.008;4.530;2022-09-03T11:25:12;3.51;;;3.51;;
73132;SDS011;61320;52.008;4.530;2022-09-03T11:30:30;4.16;;;4.16;;
73132;SDS011;61320;52.008;4.530;2022-09-03T11:33:19;3.93;;;3.93;;
73132;SDS011;61320;52.008;4.530;2022-09-03T11:35:59;3.89;;;3.89;;
73132;SDS011;61320;52.008;4.530;2022-09-03T11:38:29;3.96;;;3.96;;
73132;SDS011;61320;52.008;4.530;2022-09-03T11:40:57;4.27;;;4.27;;
73132;SDS011;61320;52.008;4.530;2022-09-03T11:48:54;4.20;;;4.20;;
73132;SDS011;61320;52.008;4.530;2022-09-03T11:56:25;3.72;;;3.72;;
73132;SDS011;61320;52.008;4.530;2022-09-03T11:59:14;3.72;;;3.72;;
73132;SDS011;61320;52.008;4.530;2022-09-03T12:01:51;3.62;;;3.62;;
73132;SDS011;61320;52.008;4.530;2022-09-03T12:04:43;3.25;;;3.25;;
73132;SDS011;61320;52.008;4.530;2022-09-03T12:08:19;3.67;;;3.67;;
73132;SDS011;61320;52.008;4.530;2022-09-03T12:10:58;3.51;;;3.51;;
73132;SDS011;61320;52.008;4.530;2022-09-03T12:19:24;3.15;;;3.15;;
73132;SDS011;61320;52.008;4.530;2022-09-03T12:21:56;3.57;;;3.57;;
73132;SDS011;61320;52.008;4.530;2022-09-03T12:24:23;3.41;;;3.41;;
73132;SDS011;61320;52.008;4.530;2022-09-03T12:26:56;3.44;;;3.44;;
73132;SDS011;61320;52.008;4.530;2022-09-03T12:29:24;3.52;;;3.52;;
73132;SDS011;61320;52.008;4.530;2022-09-03T12:31:52;3.31;;;3.31;;
73132;SDS011;61320;52.008;4.530;2022-09-03T12:34:20;3.30;;;3.30;;
73132;SDS011;61320;52.008;4.530;2022-09-03T12:36:48;3.81;;;3.81;;
73132;SDS011;61320;52.008;4.530;2022-09-03T12:39:23;3.17;;;3.17;;
73132;SDS011;61320;52.008;4.530;2022-09-03T12:44:37;2.85;;;2.85;;
73132;SDS011;61320;52.008;4.530;2022-09-03T12:49:38;3.23;;;3.23;;
73132;SDS011;61320;52.008;4.530;2022-09-03T12:54:49;2.93;;;2.93;;
73132;SDS011;61320;52.008;4.530;2022-09-03T12:57:32;2.88;;;2.88;;
73132;SDS011;61320;52.008;4.530;2022-09-03T13:00:05;3.24;;;3.24;;
73132;SDS011;61320;52.008;4.530;2022-09-03T13:05:10;3.29;;;3.29;;
73132;SDS011;61320;52.008;4.530;2022-09-03T13:07:45;3.69;;;3.69;;
73132;SDS011;61320;52.008;4.530;2022-09-03T13:10:35;3.61;;;3.61;;
73132;SDS011;61320;52.008;4.530;2022-09-03T13:13:18;3.51;;;3.51;;
73132;SDS011;61320;52.008;4.530;2022-09-03T13:15:55;3.39;;;3.39;;
73132;SDS011;61320;52.008;4.530;2022-09-03T13:21:51;3.71;;;3.71;;
73132;SDS011;61320;52.008;4.530;2022-09-03T13:29:54;3.98;;;3.98;;
73132;SDS011;61320;52.008;4.530;2022-09-03T13:35:27;4.19;;;4.19;;
73132;SDS011;61320;52.008;4.530;2022-09-03T13:38:20;4.02;;;4.02;;
73132;SDS011;61320;52.008;4.530;2022-09-03T13:41:11;4.01;;;4.01;;
73132;SDS011;61320;52.008;4.530;2022-09-03T13:43:57;3.50;;;3.50;;
73132;SDS011;61320;52.008;4.530;2022-09-03T13:46:46;4.05;;;4.05;;
73132;SDS011;61320;52.008;4.530;2022-09-03T13:52:47;3.50;;;3.50;;
73132;SDS011;61320;52.008;4.530;2022-09-03T13:55:53;3.54;;;3.54;;
73132;SDS011;61320;52.008;4.530;2022-09-03T13:58:47;3.36;;;3.36;;
73132;SDS011;61320;52.008;4.530;2022-09-03T14:04:28;4.23;;;4.23;;
73132;SDS011;61320;52.008;4.530;2022-09-03T14:07:11;4.42;;;4.42;;
73132;SDS011;61320;52.008;4.530;2022-09-03T14:09:55;4.09;;;4.09;;
73132;SDS011;61320;52.008;4.530;2022-09-03T14:12:38;3.57;;;3.57;;
73132;SDS011;61320;52.008;4.530;2022-09-03T14:17:55;3.28;;;3.28;;
73132;SDS011;61320;52.008;4.530;2022-09-03T14:25:58;3.24;;;3.24;;
73132;SDS011;61320;52.008;4.530;2022-09-03T14:33:49;3.58;;;3.58;;
73132;SDS011;61320;52.008;4.530;2022-09-03T14:48:12;3.36;;;3.36;;
73132;SDS011;61320;52.008;4.530;2022-09-03T14:50:16;3.26;;;3.26;;
73132;SDS011;61320;52.008;4.530;2022-09-03T14:55:55;3.45;;;3.45;;
73132;SDS011;61320;52.008;4.530;2022-09-03T14:58:39;3.14;;;3.14;;
73132;SDS011;61320;52.008;4.530;2022-09-03T15:01:28;3.06;;;3.06;;
73132;SDS011;61320;52.008;4.530;2022-09-03T15:09:44;3.16;;;3.16;;
73132;SDS011;61320;52.008;4.530;2022-09-03T15:12:39;2.92;;;2.92;;
73132;SDS011;61320;52.008;4.530;2022-09-03T15:15:16;3.08;;;3.08;;
73132;SDS011;61320;52.008;4.530;2022-09-03T15:34:26;2.88;;;2.88;;
73132;SDS011;61320;52.008;4.530;2022-09-03T15:37:31;2.76;;;2.76;;
73132;SDS011;61320;52.008;4.530;2022-09-03T15:40:40;2.88;;;2.88;;
73132;SDS011;61320;52.008;4.530;2022-09-03T15:43:30;2.94;;;2.94;;
73132;SDS011;61320;52.008;4.530;2022-09-03T15:45:58;2.76;;;2.76;;
73132;SDS011;61320;52.008;4.530;2022-09-03T15:51:31;3.22;;;3.22;;
73132;SDS011;61320;52.008;4.530;2022-09-03T15:57:02;2.76;;;2.76;;
73132;SDS011;61320;52.008;4.530;2022-09-03T15:59:41;2.88;;;2.88;;
73132;SDS011;61320;52.008;4.530;2022-09-03T16:02:20;2.91;;;2.91;;
73132;SDS011;61320;52.008;4.530;2022-09-03T16:05:22;3.00;;;3.00;;
73132;SDS011;61320;52.008;4.530;2022-09-03T16:24:40;3.02;;;3.02;;
73132;SDS011;61320;52.008;4.530;2022-09-03T16:27:37;3.04;;;3.04;;
73132;SDS011;61320;52.008;4.530;2022-09-03T16:33:05;3.26;;;3.26;;
73132;SDS011;61320;52.008;4.530;2022-09-03T16:38:37;3.10;;;3.10;;
73132;SDS011;61320;52.008;4.530;2022-09-03T16:41:28;3.01;;;3.01;;
73132;SDS011;61320;52.008;4.530;2022-09-03T16:47:26;3.87;;;3.87;;
73132;SDS011;61320;52.008;4.530;2022-09-03T16:52:58;3.35;;;3.35;;
73132;SDS011;61320;52.008;4.530;2022-09-03T17:04:08;3.54;;;3.54;;
73132;SDS011;61320;52.008;4.530;2022-09-03T17:10:22;3.15;;;3.15;;
73132;SDS011;61320;52.008;4.530;2022-09-03T17:24:12;3.48;;;3.48;;
73132;SDS011;61320;52.008;4.530;2022-09-03T17:30:20;4.49;;;4.49;;
73132;SDS011;61320;52.008;4.530;2022-09-03T17:46:56;3.93;;;3.93;;
73132;SDS011;61320;52.008;4.530;2022-09-03T17:52:18;3.58;;;3.58;;
73132;SDS011;61320;52.008;4.530;2022-09-03T17:55:01;3.61;;;3.61;;
73132;SDS011;61320;52.008;4.530;2022-09-03T17:58:00;4.11;;;4.11;;
73132;SDS011;61320;52.008;4.530;2022-09-03T18:00:41;4.48;;;4.48;;
73132;SDS011;61320;52.008;4.530;2022-09-03T18:04:01;4.46;;;4.46;;
73132;SDS011;61320;52.008;4.530;2022-09-03T18:06:34;4.37;;;4.37;;
73132;SDS011;61320;52.008;4.530;2022-09-03T18:11:49;3.63;;;3.63;;
73132;SDS011;61320;52.008;4.530;2022-09-03T18:19:53;4.10;;;4.10;;
73132;SDS011;61320;52.008;4.530;2022-09-03T18:23:00;3.74;;;3.74;;
73132;SDS011;61320;52.008;4.530;2022-09-03T18:25:53;3.42;;;3.42;;
73132;SDS011;61320;52.008;4.530;2022-09-03T18:31:47;3.65;;;3.65;;
73132;SDS011;61320;52.008;4.530;2022-09-03T18:34:33;3.46;;;3.46;;
73132;SDS011;61320;52.008;4.530;2022-09-03T18:37:24;3.94;;;3.94;;
73132;SDS011;61320;52.008;4.530;2022-09-03T18:40:13;4.16;;;4.16;;
73132;SDS011;61320;52.008;4.530;2022-09-03T18:43:08;4.18;;;4.18;;
73132;SDS011;61320;52.008;4.530;2022-09-03T18:46:18;3.75;;;3.75;;
73132;SDS011;61320;52.008;4.530;2022-09-03T18:49:08;4.20;;;4.20;;
73132;SDS011;61320;52.008;4.530;2022-09-03T18:52:17;3.69;;;3.69;;
73132;SDS011;61320;52.008;4.530;2022-09-03T18:58:29;4.16;;;4.16;;
73132;SDS011;61320;52.008;4.530;2022-09-03T19:01:42;3.72;;;3.72;;
73132;SDS011;61320;52.008;4.530;2022-09-03T19:07:23;4.02;;;4.02;;
73132;SDS011;61320;52.008;4.530;2022-09-03T19:10:33;3.97;;;3.97;;
73132;SDS011;61320;52.008;4.530;2022-09-03T19:13:31;4.07;;;4.07;;
73132;SDS011;61320;52.008;4.530;2022-09-03T19:19:48;3.99;;;3.99;;
73132;SDS011;61320;52.008;4.530;2022-09-03T19:22:47;4.42;;;4.42;;
73132;SDS011;61320;52.008;4.530;2022-09-03T19:25:31;4.29;;;4.29;;
73132;SDS011;61320;52.008;4.530;2022-09-03T19:34:44;3.80;;;3.80;;
73132;SDS011;61320;52.008;4.530;2022-09-03T19:46:21;4.86;;;4.86;;
73132;SDS011;61320;52.008;4.530;2022-09-03T19:52:42;4.51;;;4.51;;
73132;SDS011;61320;52.008;4.530;2022-09-03T19:55:29;4.42;;;4.42;;
73132;SDS011;61320;52.008;4.530;2022-09-03T19:58:18;4.34;;;4.34;;
73132;SDS011;61320;52.008;4.530;2022-09-03T20:01:07;4.52;;;4.52;;
73132;SDS011;61320;52.008;4.530;2022-09-03T20:03:53;4.93;;;4.93;;
73132;SDS011;61320;52.008;4.530;2022-09-03T20:06:41;7.44;;;7.44;;
73132;SDS011;61320;52.008;4.530;2022-09-03T20:09:28;7.24;;;7.24;;
73132;SDS011;61320;52.008;4.530;2022-09-03T20:12:16;7.13;;;7.13;;
73132;SDS011;61320;52.008;4.530;2022-09-03T20:14:46;7.17;;;7.17;;
73132;SDS011;61320;52.008;4.530;2022-09-03T20:17:25;6.32;;;6.32;;
73132;SDS011;61320;52.008;4.530;2022-09-03T20:23:08;6.57;;;6.57;;
73132;SDS011;61320;52.008;4.530;2022-09-03T20:31:36;5.19;;;5.19;;
73132;SDS011;61320;52.008;4.530;2022-09-03T20:37:33;5.43;;;5.43;;
73132;SDS011;61320;52.008;4.530;2022-09-03T20:42:55;4.91;;;4.91;;
73132;SDS011;61320;52.008;4.530;2022-09-03T20:48:48;4.92;;;4.92;;
73132;SDS011;61320;52.008;4.530;2022-09-03T20:52:10;4.98;;;4.98;;
73132;SDS011;61320;52.008;4.530;2022-09-03T20:54:36;5.44;;;5.44;;
73132;SDS011;61320;52.008;4.530;2022-09-03T21:00:03;6.03;;;6.03;;
73132;SDS011;61320;52.008;4.530;2022-09-03T21:05:31;6.29;;;6.29;;
73132;SDS011;61320;52.008;4.530;2022-09-03T21:13:11;7.19;;;7.19;;
73132;SDS011;61320;52.008;4.530;2022-09-03T21:15:57;7.13;;;7.13;;
73132;SDS011;61320;52.008;4.530;2022-09-03T21:18:40;7.10;;;7.10;;
73132;SDS011;61320;52.008;4.530;2022-09-03T21:24:10;6.67;;;6.67;;
73132;SDS011;61320;52.008;4.530;2022-09-03T21:26:44;6.57;;;6.57;;
73132;SDS011;61320;52.008;4.530;2022-09-03T21:34:36;6.43;;;6.43;;
73132;SDS011;61320;52.008;4.530;2022-09-03T21:37:09;5.93;;;5.93;;
73132;SDS011;61320;52.008;4.530;2022-09-03T21:39:41;6.61;;;6.61;;
73132;SDS011;61320;52.008;4.530;2022-09-03T21:42:10;6.65;;;6.65;;
73132;SDS011;61320;52.008;4.530;2022-09-03T21:44:45;6.04;;;6.04;;
73132;SDS011;61320;52.008;4.530;2022-09-03T21:47:27;6.35;;;6.35;;
73132;SDS011;61320;52.008;4.530;2022-09-03T21:50:10;6.33;;;6.33;;
73132;SDS011;61320;52.008;4.530;2022-09-03T21:55:35;6.88;;;6.88;;
73132;SDS011;61320;52.008;4.530;2022-09-03T22:00:38;6.85;;;6.85;;
73132;SDS011;61320;52.008;4.530;2022-09-03T22:03:04;7.07;;;7.07;;
73132;SDS011;61320;52.008;4.530;2022-09-03T22:05:43;7.10;;;7.10;;
73132;SDS011;61320;52.008;4.530;2022-09-03T22:08:35;7.75;;;7.75;;
73132;SDS011;61320;52.008;4.530;2022-09-03T22:11:38;8.17;;;8.17;;
73132;SDS011;61320;52.008;4.530;2022-09-03T22:14:35;7.96;;;7.96;;
73132;SDS011;61320;52.008;4.530;2022-09-03T22:17:16;8.42;;;8.42;;
73132;SDS011;61320;52.008;4.530;2022-09-03T22:19:53;8.93;;;8.93;;
73132;SDS011;61320;52.008;4.530;2022-09-03T22:22:22;8.85;;;8.85;;
73132;SDS011;61320;52.008;4.530;2022-09-03T22:25:21;9.30;;;9.30;;
73132;SDS011;61320;52.008;4.530;2022-09-03T22:30:47;9.20;;;9.20;;
73132;SDS011;61320;52.008;4.530;2022-09-03T22:33:28;9.22;;;9.22;;
73132;SDS011;61320;52.008;4.530;2022-09-03T22:41:37;11.29;;;11.29;;
73132;SDS011;61320;52.008;4.530;2022-09-03T22:44:37;11.60;;;11.60;;
73132;SDS011;61320;52.008;4.530;2022-09-03T22:47:51;11.80;;;11.80;;
73132;SDS011;61320;52.008;4.530;2022-09-03T22:50:56;11.90;;;11.90;;
73132;SDS011;61320;52.008;4.530;2022-09-03T22:58:23;11.26;;;11.26;;
73132;SDS011;61320;52.008;4.530;2022-09-03T23:00:58;11.03;;;11.03;;
73132;SDS011;61320;52.008;4.530;2022-09-03T23:03:40;11.72;;;11.72;;
73132;SDS011;61320;52.008;4.530;2022-09-03T23:09:16;10.81;;;10.81;;
73132;SDS011;61320;52.008;4.530;2022-09-03T23:11:50;10.24;;;10.24;;
73132;SDS011;61320;52.008;4.530;2022-09-03T23:14:23;10.19;;;10.19;;
73132;SDS011;61320;52.008;4.530;2022-09-03T23:17:20;10.89;;;10.89;;
73132;SDS011;61320;52.008;4.530;2022-09-03T23:22:48;10.75;;;10.75;;
73132;SDS011;61320;52.008;4.530;2022-09-03T23:25:24;10.55;;;10.55;;
73132;SDS011;61320;52.008;4.530;2022-09-03T23:28:01;10.96;;;10.96;;
73132;SDS011;61320;52.008;4.530;2022-09-03T23:30:34;11.17;;;11.17;;
73132;SDS011;61320;52.008;4.530;2022-09-03T23:33:00;10.74;;;10.74;;
73132;SDS011;61320;52.008;4.530;2022-09-03T23:35:32;10.50;;;10.50;;
73132;SDS011;61320;52.008;4.530;2022-09-03T23:38:33;11.28;;;11.28;;
73132;SDS011;61320;52.008;4.530;2022-09-03T23:47:33;10.88;;;10.88;;
